Washington, DC (20004)

12:19 AM EDT on July 26, 2016 (GMT -0400)
The Washington Post | | Change Station

Elev 151 ft 38.90 °N, 77.03 °W | Updated 4 seconds ago

Scattered Clouds
Scattered Clouds
83.1 °F
Feels Like 88 °F
N
4.9
Wind Variable Wind from East
Gusts 10.0 mph

Today
High -- | Low -- °F
--% Chance of Precip.
Yesterday
High -- | Low -- °F
Precip. -- in
Pressure 29.91 in
Visibility 10.0 miles
Clouds Few 6000 ft
Scattered Clouds 10000 ft
Scattered Clouds 25000 ft
Heat Index 88 °F
Dew Point 72 °F
Humidity 69%
Rainfall 0.00 in
Snow Depth Not available.
6:04 AM 8:24 PM
Waning Gibbous, 59% visible
METAR KDCA 260352Z 09010KT 10SM FEW060 SCT100 SCT250 29/23 A2991 RMK AO2 TSE51 SLP126 CONS LTGICCC DSNT E-S CB DSNT E-S MOV SE T02940228
Pressure 29.91 in
Visibility 10.0 miles
Clouds Few 6000 ft
Scattered Clouds 10000 ft
Scattered Clouds 25000 ft
Heat Index 88 °F
Dew Point 72 °F
Humidity 69%
Rainfall 0.00 in
Snow Depth Not available.
6:04 AM 8:24 PM
Waning Gibbous, 59% visible
METAR KDCA 260352Z 09010KT 10SM FEW060 SCT100 SCT250 29/23 A2991 RMK AO2 TSE51 SLP126 CONS LTGICCC DSNT E-S CB DSNT E-S MOV SE T02940228
Record highs are possible for parts of the Northeast Monday and Tuesday, as parts of the central U.S. take a little breather from the worst of summer's dog day heat.

Expansive high pressure in the upper atmosphere will focus on parts of the East and West this week, sending heat indices well into the triple digits from the Mid-Atlantic states into the South.

10-Day Weather Forecast

Almanac

Astronomy

Jul. 26, 2016 Rise Set
Actual Time
Civil Twilight
Nautical Twilight
Astronomical Twilight
Moon
Length of Visible Light
Length of Day
Tomorrow will be .
, % of the Moon is Illuminated

Today's Extremes

State Highs State Lows

Community

WunderPhotos

Upload Photos

1,927,530 photos uploaded!

WunderBlog® & News

Nearby

Air Quality

  Air Quality AQ Index Pollutant
Not available.

Snow Depth

Station Depth Elevation

Earthquake Activity

City Distance Mag. Time & Date
Minimum magnitude displayed is 2.5.

Coastal Water Temperatures

Place Temperature

Stations

Nearby Weather Stations

Station Location Temp. Windchill Dew Point Humidity Wind Precip. Elev Updated Type
                   

Watches & Warnings

There are currently no watches in effect.